TimeCDT,TemperatureF,Dew PointF,Humidity,Sea Level PressureIn,VisibilityMPH,Wind Direction,Wind SpeedMPH,Gust SpeedMPH,PrecipitationIn,Events,Conditions,WindDirDegrees,DateUTC
12:53 AM,82.0,77.0,85,30.03,9.0,SSE,11.5,-,N/A,,Partly Cloudy,150,2013-07-26 05:53:00
1:53 AM,81.0,75.9,85,30.02,9.0,SSE,10.4,-,N/A,,Clear,160,2013-07-26 06:53:00
2:53 AM,81.0,75.9,85,30.01,9.0,SSE,8.1,-,N/A,,Clear,160,2013-07-26 07:53:00
3:53 AM,80.1,75.9,87,29.99,9.0,South,6.9,-,N/A,,Clear,170,2013-07-26 08:53:00
4:53 AM,80.1,75.9,87,29.99,8.0,South,4.6,-,N/A,,Clear,180,2013-07-26 09:53:00
5:53 AM,80.1,77.0,90,29.99,8.0,SSE,6.9,-,N/A,,Partly Cloudy,150,2013-07-26 10:53:00
6:53 AM,79.0,77.0,94,30.00,6.0,South,4.6,-,N/A,,Clear,180,2013-07-26 11:53:00
7:53 AM,81.0,78.1,91,30.00,7.0,South,8.1,-,N/A,,Clear,180,2013-07-26 12:53:00
8:53 AM,84.0,78.1,82,30.01,7.0,South,13.8,-,N/A,,Scattered Clouds,180,2013-07-26 13:53:00
9:53 AM,88.0,75.9,67,30.01,8.0,South,18.4,23.0,N/A,,Scattered Clouds,180,2013-07-26 14:53:00
10:53 AM,90.0,73.0,57,30.01,9.0,South,13.8,25.3,N/A,,Partly Cloudy,170,2013-07-26 15:53:00
11:53 AM,91.9,72.0,52,30.01,9.0,South,15.0,27.6,N/A,,Clear,170,2013-07-26 16:53:00
12:53 PM,93.9,73.0,51,29.99,9.0,SSE,19.6,24.2,N/A,,Partly Cloudy,160,2013-07-26 17:53:00
1:53 PM,95.0,73.0,49,29.98,8.0,SSE,19.6,29.9,N/A,,Clear,160,2013-07-26 18:53:00
2:53 PM,93.9,73.9,52,29.96,9.0,SSE,18.4,32.2,N/A,,Clear,160,2013-07-26 19:53:00
3:53 PM,93.0,73.0,52,29.96,9.0,SSE,21.9,31.1,N/A,,Clear,160,2013-07-26 20:53:00
4:53 PM,91.9,73.0,54,29.94,8.0,SSE,21.9,32.2,N/A,,Clear,160,2013-07-26 21:53:00
5:53 PM,90.0,73.9,59,29.95,9.0,SSE,23.0,31.1,N/A,,Clear,160,2013-07-26 22:53:00
6:53 PM,87.1,73.0,63,29.94,8.0,SSE,18.4,29.9,N/A,,Clear,160,2013-07-26 23:53:00
7:53 PM,84.9,73.9,69,29.93,9.0,SSE,23.0,31.1,N/A,,Clear,160,2013-07-27 00:53:00
8:53 PM,82.9,75.0,77,29.93,10.0,SSE,18.4,27.6,N/A,,Clear,160,2013-07-27 01:53:00
9:53 PM,82.9,75.0,77,29.94,10.0,South,17.3,25.3,N/A,,Clear,170,2013-07-27 02:53:00
10:53 PM,82.0,75.9,82,29.96,10.0,South,16.1,23.0,N/A,,Clear,170,2013-07-27 03:53:00
11:53 PM,82.0,75.9,82,29.96,9.0,South,13.8,-,N/A,,Clear,170,2013-07-27 04:53:00